Warren, Canada
Current Conditions -  °F | °C
As of 2:36 PM on Friday 31 Oct 2014 (Local Time) from CYSB Reporting Station
Light Snow Light Snow  
Wind Chill: 15°   Ceiling: 1100
Heat Index: 28°   Visibility: 0.75mi
Dew Point: 27°   Wind: 20mph
Humidity: 93%   Direction: 20°NNE
Pressure: 30.12"   Gusts: 28mph
Location:  46.43°N, 80.3°W
Report Text: CYSB 311836Z 02017G24KT 3/4SM R22/4500VP6000FT/D -SN DRSN FEW005 BKN011 OVC020 M02/M03 A3012 RMK SF2SC5SC1 SLP217
Loading
Personal Weather Stations






























Interactive Weather Map
Tropical Storm Tracking
New forecast layout! Learn more

10-Day Weather Forecast

Advertisements
Track Severe Weather on mobile